ΕΜΥ, Εθνική Μετεωρολογική Υπηρεσία - Δελτία Καιρού, Προγνώσεις

ΑΕΡΟΝΑΥΤΙΛΙΑ

GREEK AIRPORTS CODES

TAF LGKV 311100Z 3112/0112 VRB03KT 9999 FEW025 BKN070 PROB30 TEMPO 3112/3115 6000 RA SCT025 OVC070 BECMG 3117/3119 FEW030 TEMPO 0100/0106 FEW008 SCT025=

EUROPEAN AIRPORTS CODES

LFPO 311500Z 26011KT 9999 FEW021 BKN260 09/03 Q1028 NOSIG=